Time;durP1;ratioP1;P1;durP2;ratioP2;P2;SDS_P1;SDS_P2;PMS_P1;PMS_P2;Temp;Humidity;BMP_temperature;BMP_pressure;BME280_temperature;BME280_humidity;BME280_pressure;Samples;Min_cycle;Max_cycle;Signal;HPM_P1;HPM_P2
2022/01/06 00:00:45;;;;;;;5.40;4.20;;;;;;;;;;5056735;28;20508;-77
2022/01/06 00:03:12;;;;;;;8.37;4.70;;;;;;;;;;5056142;28;20466;-77
2022/01/06 00:05:39;;;;;;;4.57;3.70;;;;;;;;;;5056896;28;20439;-76
2022/01/06 00:08:06;;;;;;;7.93;4.17;;;;;;;;;;5056719;28;20432;-76
2022/01/06 00:10:33;;;;;;;5.30;3.87;;;;;;;;;;5055874;28;20431;-77
2022/01/06 00:13:09;;;;;;;7.10;3.80;;;;;;;;;;5051527;28;20446;-78
2022/01/06 00:15:40;;;;;;;6.97;4.13;;;;;;;;;;5054872;28;20439;-76
2022/01/06 00:18:18;;;;;;;8.23;4.30;;;;;;;;;;5053807;28;20459;-77
2022/01/06 00:23:33;;;;;;;6.00;4.33;;;;;;;;;;5053299;28;20422;-77
2022/01/06 00:26:01;;;;;;;4.33;3.87;;;;;;;;;;5056679;28;20456;-77
2022/01/06 00:28:28;;;;;;;5.07;3.90;;;;;;;;;;5045786;28;20513;-78
2022/01/06 00:30:56;;;;;;;8.70;5.23;;;;;;;;;;5031962;28;20946;-77
2022/01/06 00:33:23;;;;;;;7.30;4.10;;;;;;;;;;5031338;28;20527;-78
2022/01/06 00:35:51;;;;;;;4.53;4.13;;;;;;;;;;5031321;28;20436;-76
2022/01/06 00:38:18;;;;;;;8.83;4.87;;;;;;;;;;5031864;28;20881;-78
2022/01/06 00:40:45;;;;;;;4.83;4.30;;;;;;;;;;5031705;28;20458;-78
2022/01/06 00:43:12;;;;;;;8.43;4.00;;;;;;;;;;5031806;28;20467;-77
2022/01/06 00:45:39;;;;;;;8.57;4.73;;;;;;;;;;5031781;28;20514;-77
2022/01/06 00:48:10;;;;;;;5.33;4.77;;;;;;;;;;5031986;28;20458;-76
2022/01/06 00:50:37;;;;;;;6.03;4.10;;;;;;;;;;5032055;28;20828;-78
2022/01/06 00:53:04;;;;;;;4.37;3.97;;;;;;;;;;5031471;28;20473;-77
2022/01/06 00:55:32;;;;;;;9.53;4.67;;;;;;;;;;5032375;28;21056;-77
2022/01/06 00:57:59;;;;;;;7.03;4.40;;;;;;;;;;5033032;28;20869;-77
2022/01/06 01:00:28;;;;;;;9.37;4.60;;;;;;;;;;5032182;28;20444;-77
2022/01/06 01:02:55;;;;;;;4.73;4.33;;;;;;;;;;5039009;28;20457;-76
2022/01/06 01:05:24;;;;;;;6.03;5.07;;;;;;;;;;5052162;28;20500;-77
2022/01/06 01:07:51;;;;;;;10.90;5.23;;;;;;;;;;5048936;28;20475;-78
2022/01/06 01:10:18;;;;;;;8.10;4.30;;;;;;;;;;5050816;28;20439;-76
2022/01/06 01:12:48;;;;;;;12.40;4.57;;;;;;;;;;5041554;28;20438;-77
2022/01/06 01:15:19;;;;;;;5.43;4.10;;;;;;;;;;5051456;28;20905;-78
2022/01/06 01:17:47;;;;;;;7.00;4.47;;;;;;;;;;5051698;28;20476;-77
2022/01/06 01:20:15;;;;;;;5.37;4.20;;;;;;;;;;5041390;28;21195;-77
2022/01/06 01:22:43;;;;;;;4.87;3.87;;;;;;;;;;5038345;28;20545;-77
2022/01/06 01:25:10;;;;;;;6.70;4.40;;;;;;;;;;5041503;28;20447;-79
2022/01/06 01:27:40;;;;;;;6.33;4.50;;;;;;;;;;5050613;28;20466;-79
2022/01/06 01:30:12;;;;;;;6.93;4.53;;;;;;;;;;5051628;28;20525;-77
2022/01/06 01:32:40;;;;;;;9.20;4.60;;;;;;;;;;5046963;28;20526;-78
2022/01/06 01:35:09;;;;;;;8.23;4.43;;;;;;;;;;5044303;28;20444;-77
2022/01/06 01:37:36;;;;;;;5.97;4.43;;;;;;;;;;5043720;28;20829;-76
2022/01/06 01:40:05;;;;;;;7.07;4.73;;;;;;;;;;5052885;28;20477;-77
2022/01/06 01:42:33;;;;;;;5.80;4.37;;;;;;;;;;5053167;28;20438;-77
2022/01/06 01:45:02;;;;;;;9.90;5.10;;;;;;;;;;5053499;28;20422;-77
2022/01/06 01:47:31;;;;;;;6.70;5.13;;;;;;;;;;5054532;28;20474;-77
2022/01/06 01:50:12;;;;;;;14.03;4.77;;;;;;;;;;5043056;28;20475;-76
2022/01/06 01:52:39;;;;;;;10.20;4.47;;;;;;;;;;5045423;28;20516;-76
2022/01/06 01:55:08;;;;;;;7.67;4.33;;;;;;;;;;5042632;28;20918;-77
2022/01/06 01:57:35;;;;;;;7.10;4.97;;;;;;;;;;5034366;28;20867;-77
2022/01/06 02:00:03;;;;;;;7.23;5.03;;;;;;;;;;5034654;28;20474;-77
2022/01/06 02:02:30;;;;;;;5.70;4.63;;;;;;;;;;5038192;28;20443;-76
2022/01/06 02:04:57;;;;;;;8.57;5.10;;;;;;;;;;5054443;28;20446;-78
2022/01/06 02:07:24;;;;;;;6.77;5.13;;;;;;;;;;5054945;28;20498;-77
2022/01/06 02:09:51;;;;;;;9.33;4.80;;;;;;;;;;5054026;28;20519;-77
2022/01/06 02:12:28;;;;;;;7.17;4.90;;;;;;;;;;5054139;28;20496;-76
2022/01/06 02:14:55;;;;;;;7.23;4.37;;;;;;;;;;5054507;28;20930;-77
2022/01/06 02:17:22;;;;;;;6.17;5.10;;;;;;;;;;5048258;28;20470;-78
2022/01/06 02:19:57;;;;;;;5.87;4.37;;;;;;;;;;5054581;28;20482;-77
2022/01/06 02:22:24;;;;;;;7.00;4.33;;;;;;;;;;5038678;28;20451;-77
2022/01/06 02:24:52;;;;;;;4.93;4.33;;;;;;;;;;5034320;28;20829;-78
2022/01/06 02:27:20;;;;;;;6.10;4.70;;;;;;;;;;5034314;28;21051;-77
2022/01/06 02:29:48;;;;;;;5.00;4.50;;;;;;;;;;5034955;28;20470;-78
2022/01/06 02:32:16;;;;;;;5.93;3.93;;;;;;;;;;5034014;28;20455;-77
2022/01/06 02:34:44;;;;;;;6.97;4.90;;;;;;;;;;5033866;28;20443;-76
2022/01/06 02:37:12;;;;;;;6.70;5.00;;;;;;;;;;5033678;28;20716;-78
2022/01/06 02:39:39;;;;;;;6.53;4.53;;;;;;;;;;5034451;28;20486;-77
2022/01/06 02:42:07;;;;;;;5.13;4.50;;;;;;;;;;5033730;28;20436;-77
2022/01/06 02:44:37;;;;;;;5.83;3.90;;;;;;;;;;5033864;28;20474;-77
2022/01/06 02:47:04;;;;;;;6.97;4.27;;;;;;;;;;5033793;28;20480;-77
2022/01/06 02:49:31;;;;;;;10.03;4.73;;;;;;;;;;5034717;28;20442;-78
2022/01/06 02:51:58;;;;;;;7.40;4.27;;;;;;;;;;5034044;28;20944;-77
2022/01/06 02:54:27;;;;;;;8.43;4.43;;;;;;;;;;5033660;28;20436;-77
2022/01/06 02:56:54;;;;;;;6.00;5.40;;;;;;;;;;5034248;28;20496;-77
2022/01/06 02:59:21;;;;;;;6.20;4.03;;;;;;;;;;5049806;28;20496;-77
2022/01/06 03:01:48;;;;;;;6.13;4.03;;;;;;;;;;5076693;28;20451;-76
2022/01/06 03:04:15;;;;;;;5.40;4.50;;;;;;;;;;5076583;28;20424;-75
2022/01/06 03:06:42;;;;;;;5.60;4.17;;;;;;;;;;5077737;28;20466;-77
2022/01/06 03:09:10;;;;;;;6.80;4.03;;;;;;;;;;5077336;28;20485;-76
2022/01/06 03:11:42;;;;;;;4.70;4.30;;;;;;;;;;5077761;28;20436;-76
2022/01/06 03:14:09;;;;;;;8.10;4.57;;;;;;;;;;5077470;28;20442;-76
2022/01/06 03:16:36;;;;;;;5.87;4.10;;;;;;;;;;5070526;28;20467;-79
2022/01/06 03:19:03;;;;;;;6.70;4.50;;;;;;;;;;5050264;28;20508;-76
2022/01/06 03:21:30;;;;;;;5.43;3.60;;;;;;;;;;5049504;28;20447;-77
2022/01/06 03:23:57;;;;;;;6.13;3.77;;;;;;;;;;5041492;28;20519;-77
2022/01/06 03:26:24;;;;;;;7.30;4.50;;;;;;;;;;5033410;28;20506;-77
2022/01/06 03:28:53;;;;;;;6.87;3.87;;;;;;;;;;5032953;28;20447;-77
2022/01/06 03:31:20;;;;;;;3.83;3.53;;;;;;;;;;5032929;28;20451;-77
2022/01/06 03:33:47;;;;;;;4.27;3.87;;;;;;;;;;5032923;28;20455;-78
2022/01/06 03:36:14;;;;;;;6.87;4.40;;;;;;;;;;5032770;28;20546;-76
2022/01/06 03:38:41;;;;;;;5.03;4.60;;;;;;;;;;5032880;28;20451;-77
2022/01/06 03:41:08;;;;;;;5.23;4.47;;;;;;;;;;5033000;28;20486;-78
2022/01/06 03:43:35;;;;;;;6.80;4.20;;;;;;;;;;5032208;28;20451;-77
2022/01/06 03:46:03;;;;;;;6.27;4.20;;;;;;;;;;5032082;28;20464;-76
2022/01/06 03:48:30;;;;;;;4.30;3.90;;;;;;;;;;5032275;28;20466;-78
2022/01/06 03:50:57;;;;;;;3.90;3.40;;;;;;;;;;5032376;28;20498;-77
2022/01/06 03:53:24;;;;;;;7.27;4.40;;;;;;;;;;5032305;28;20442;-77
2022/01/06 03:55:51;;;;;;;5.37;4.30;;;;;;;;;;5032557;28;20486;-78
2022/01/06 03:58:18;;;;;;;5.90;4.13;;;;;;;;;;5032479;28;20931;-76
2022/01/06 04:00:45;;;;;;;6.33;4.50;;;;;;;;;;5032699;28;20517;-78
2022/01/06 04:03:14;;;;;;;4.53;4.17;;;;;;;;;;5041628;28;20510;-77
2022/01/06 04:05:41;;;;;;;4.80;4.30;;;;;;;;;;5052156;28;20503;-78
2022/01/06 04:08:08;;;;;;;5.13;4.57;;;;;;;;;;5052354;28;20446;-76
2022/01/06 04:10:35;;;;;;;4.87;4.40;;;;;;;;;;5052050;28;20858;-77
2022/01/06 04:13:02;;;;;;;4.97;4.20;;;;;;;;;;5051189;28;20846;-76
2022/01/06 04:15:29;;;;;;;4.73;4.23;;;;;;;;;;5052364;28;20446;-76
2022/01/06 04:17:56;;;;;;;7.97;4.80;;;;;;;;;;5051876;28;20520;-78
2022/01/06 04:20:24;;;;;;;4.33;3.93;;;;;;;;;;5051700;28;20965;-77
2022/01/06 04:22:51;;;;;;;4.83;4.27;;;;;;;;;;5051694;28;20436;-76
2022/01/06 04:25:18;;;;;;;10.33;4.63;;;;;;;;;;5047467;28;20538;-77
2022/01/06 04:27:45;;;;;;;7.40;4.30;;;;;;;;;;5053139;28;20475;-77
2022/01/06 04:30:13;;;;;;;4.40;4.00;;;;;;;;;;5036105;28;20444;-78
2022/01/06 04:32:40;;;;;;;5.30;4.80;;;;;;;;;;5034469;28;20436;-77
2022/01/06 04:35:08;;;;;;;4.97;4.50;;;;;;;;;;5031871;28;20440;-78
2022/01/06 04:37:37;;;;;;;8.93;5.30;;;;;;;;;;5042548;28;20465;-78
2022/01/06 04:40:04;;;;;;;6.13;4.10;;;;;;;;;;5051067;28;20479;-76
2022/01/06 04:42:31;;;;;;;7.03;5.00;;;;;;;;;;5035298;28;20500;-77
2022/01/06 04:44:58;;;;;;;6.40;4.60;;;;;;;;;;5031508;28;20494;-77
2022/01/06 04:47:25;;;;;;;5.07;4.30;;;;;;;;;;5031738;28;20890;-77
2022/01/06 04:49:52;;;;;;;6.23;4.07;;;;;;;;;;5031784;28;20505;-77
2022/01/06 04:52:19;;;;;;;7.87;4.73;;;;;;;;;;5031549;28;20447;-76
2022/01/06 04:54:48;;;;;;;9.10;5.20;;;;;;;;;;5031358;28;20455;-76
2022/01/06 04:57:15;;;;;;;5.70;4.57;;;;;;;;;;5031753;28;20459;-77
2022/01/06 04:59:42;;;;;;;8.80;4.40;;;;;;;;;;5032623;28;20478;-77
2022/01/06 05:02:09;;;;;;;5.67;4.90;;;;;;;;;;5037078;28;20462;-77
2022/01/06 05:04:36;;;;;;;6.70;4.67;;;;;;;;;;5055450;28;20453;-76
2022/01/06 05:07:03;;;;;;;5.30;4.80;;;;;;;;;;5055475;28;20982;-77
2022/01/06 05:09:30;;;;;;;5.33;3.80;;;;;;;;;;5055529;28;20465;-77
2022/01/06 05:11:59;;;;;;;6.10;4.50;;;;;;;;;;5055329;28;20496;-77
2022/01/06 05:14:26;;;;;;;5.73;5.20;;;;;;;;;;5055353;28;20520;-77
2022/01/06 05:16:55;;;;;;;5.40;4.70;;;;;;;;;;5055278;28;20838;-78
2022/01/06 05:19:22;;;;;;;4.90;4.23;;;;;;;;;;5056113;28;20447;-77
2022/01/06 05:21:51;;;;;;;5.73;4.47;;;;;;;;;;5054859;28;20478;-77
2022/01/06 05:24:18;;;;;;;7.47;4.47;;;;;;;;;;5055355;28;20446;-77
2022/01/06 05:26:45;;;;;;;5.07;4.57;;;;;;;;;;5055395;28;20993;-79
2022/01/06 05:29:14;;;;;;;6.20;4.03;;;;;;;;;;5055528;28;20452;-77
2022/01/06 05:31:41;;;;;;;7.90;4.33;;;;;;;;;;5055180;28;20453;-77
2022/01/06 05:34:09;;;;;;;5.03;3.90;;;;;;;;;;5054709;28;20524;-77
2022/01/06 05:36:36;;;;;;;7.63;5.03;;;;;;;;;;5054823;28;20577;-77
2022/01/06 05:39:03;;;;;;;6.93;4.97;;;;;;;;;;5055129;28;20438;-77
2022/01/06 05:41:31;;;;;;;5.67;4.37;;;;;;;;;;5054890;28;20481;-77
2022/01/06 05:43:58;;;;;;;3.50;3.20;;;;;;;;;;5054780;28;20996;-78
2022/01/06 05:46:26;;;;;;;6.60;4.80;;;;;;;;;;5054540;28;20466;-78
2022/01/06 05:48:53;;;;;;;6.13;5.03;;;;;;;;;;5054700;28;20442;-77
2022/01/06 05:51:20;;;;;;;6.30;5.10;;;;;;;;;;5054541;28;20451;-77
2022/01/06 05:53:49;;;;;;;5.23;4.07;;;;;;;;;;5054492;28;20450;-77
2022/01/06 05:56:16;;;;;;;7.20;4.77;;;;;;;;;;5048722;28;20561;-76
2022/01/06 05:58:44;;;;;;;5.70;4.03;;;;;;;;;;5046292;28;20492;-77
2022/01/06 06:01:11;;;;;;;6.10;4.33;;;;;;;;;;5054597;28;20491;-76
2022/01/06 06:03:39;;;;;;;8.10;4.90;;;;;;;;;;5054152;28;20446;-78
2022/01/06 06:06:06;;;;;;;8.40;4.63;;;;;;;;;;5054872;28;20544;-77
2022/01/06 06:08:33;;;;;;;8.90;3.93;;;;;;;;;;5054492;28;20851;-76
2022/01/06 06:11:00;;;;;;;6.07;4.03;;;;;;;;;;5054242;28;20443;-77
2022/01/06 06:13:27;;;;;;;7.53;4.23;;;;;;;;;;5055241;28;20467;-77
2022/01/06 06:15:54;;;;;;;5.20;3.90;;;;;;;;;;5053953;28;20434;-77
2022/01/06 06:18:21;;;;;;;6.20;3.67;;;;;;;;;;5054580;28;20485;-77
2022/01/06 06:20:50;;;;;;;6.60;3.83;;;;;;;;;;5054401;28;20977;-77
2022/01/06 06:23:17;;;;;;;9.73;4.47;;;;;;;;;;5054031;28;20450;-77
2022/01/06 06:25:44;;;;;;;7.43;4.13;;;;;;;;;;5054426;28;20449;-77
2022/01/06 06:28:11;;;;;;;7.37;4.20;;;;;;;;;;5054518;28;20916;-77
2022/01/06 06:30:38;;;;;;;5.83;5.13;;;;;;;;;;5053794;28;20768;-78
2022/01/06 06:33:05;;;;;;;7.77;5.00;;;;;;;;;;5054244;28;20512;-77
2022/01/06 06:35:32;;;;;;;5.70;4.87;;;;;;;;;;5054119;28;20446;-77
2022/01/06 06:38:00;;;;;;;5.63;3.97;;;;;;;;;;5053183;28;20467;-78
2022/01/06 06:40:28;;;;;;;6.00;3.93;;;;;;;;;;5053419;28;20898;-78
2022/01/06 06:42:56;;;;;;;7.47;5.00;;;;;;;;;;5045955;28;20485;-78
2022/01/06 06:45:23;;;;;;;6.47;4.50;;;;;;;;;;5053821;28;20930;-76
2022/01/06 06:47:50;;;;;;;10.07;3.57;;;;;;;;;;5053245;28;20482;-77
2022/01/06 06:50:18;;;;;;;7.00;3.80;;;;;;;;;;5055249;28;20470;-77
2022/01/06 06:52:45;;;;;;;6.60;4.17;;;;;;;;;;5059707;28;20457;-78
2022/01/06 06:55:14;;;;;;;5.97;4.50;;;;;;;;;;5058955;28;20442;-77
2022/01/06 06:57:41;;;;;;;7.23;4.33;;;;;;;;;;5059006;28;20461;-77
2022/01/06 07:00:09;;;;;;;5.10;4.63;;;;;;;;;;5059844;28;20488;-78
2022/01/06 07:02:36;;;;;;;12.50;4.90;;;;;;;;;;5057871;28;20459;-77
2022/01/06 07:05:03;;;;;;;5.00;4.20;;;;;;;;;;5058038;28;20813;-78
2022/01/06 07:07:30;;;;;;;10.20;6.17;;;;;;;;;;5056763;28;20472;-78
2022/01/06 07:09:57;;;;;;;5.77;3.97;;;;;;;;;;5053068;28;20946;-78
2022/01/06 07:12:26;;;;;;;13.20;5.63;;;;;;;;;;5053846;28;20431;-76
2022/01/06 07:14:53;;;;;;;5.40;4.23;;;;;;;;;;5055133;28;20442;-78
2022/01/06 07:17:20;;;;;;;6.83;4.80;;;;;;;;;;5059257;28;20450;-77
2022/01/06 07:19:47;;;;;;;8.20;5.07;;;;;;;;;;5053229;28;20946;-78
2022/01/06 07:22:14;;;;;;;4.60;4.20;;;;;;;;;;5052434;28;20474;-77
2022/01/06 07:24:42;;;;;;;5.20;4.60;;;;;;;;;;5053446;28;20808;-77
2022/01/06 07:27:09;;;;;;;5.40;4.60;;;;;;;;;;5053797;28;20588;-79
2022/01/06 07:29:37;;;;;;;8.40;4.93;;;;;;;;;;5053600;28;20546;-77
2022/01/06 07:32:04;;;;;;;5.13;3.90;;;;;;;;;;5053721;28;20434;-77
2022/01/06 07:34:31;;;;;;;7.93;4.30;;;;;;;;;;5053246;28;20466;-78
2022/01/06 07:36:59;;;;;;;9.60;5.30;;;;;;;;;;5053035;28;20453;-77
2022/01/06 07:39:26;;;;;;;10.03;4.60;;;;;;;;;;5053671;28;20457;-77
2022/01/06 07:41:54;;;;;;;5.33;4.30;;;;;;;;;;5053261;28;20530;-76
2022/01/06 07:44:21;;;;;;;5.60;4.60;;;;;;;;;;5052896;28;20489;-77
2022/01/06 07:46:49;;;;;;;5.27;4.80;;;;;;;;;;5053206;28;20977;-76
2022/01/06 07:49:16;;;;;;;6.20;4.60;;;;;;;;;;5053685;28;20944;-78
2022/01/06 07:51:43;;;;;;;7.27;5.67;;;;;;;;;;5053001;28;20442;-77
2022/01/06 07:54:10;;;;;;;5.23;4.03;;;;;;;;;;5053003;28;20447;-77
2022/01/06 07:56:37;;;;;;;9.37;4.63;;;;;;;;;;5052816;28;20463;-76
2022/01/06 07:59:04;;;;;;;5.33;4.60;;;;;;;;;;5052744;28;20442;-78
2022/01/06 08:01:32;;;;;;;12.70;5.10;;;;;;;;;;5053316;28;20473;-78
2022/01/06 08:04:00;;;;;;;8.90;4.73;;;;;;;;;;5036434;28;20447;-78
2022/01/06 08:06:27;;;;;;;12.27;5.07;;;;;;;;;;5032196;28;20477;-77
2022/01/06 08:08:54;;;;;;;7.63;4.90;;;;;;;;;;5032865;28;20871;-77
2022/01/06 08:11:21;;;;;;;6.37;4.40;;;;;;;;;;5044132;28;20504;-78
2022/01/06 08:13:48;;;;;;;5.77;5.30;;;;;;;;;;5054050;28;20940;-77
2022/01/06 08:16:15;;;;;;;6.77;4.60;;;;;;;;;;5053224;28;21038;-77
2022/01/06 08:18:42;;;;;;;8.30;5.83;;;;;;;;;;5053530;28;20937;-78
2022/01/06 08:21:11;;;;;;;8.10;4.73;;;;;;;;;;5051282;28;20479;-77
2022/01/06 08:23:38;;;;;;;9.53;5.07;;;;;;;;;;5051032;28;20450;-76
2022/01/06 08:26:05;;;;;;;6.37;4.60;;;;;;;;;;5031887;28;20982;-77
2022/01/06 08:28:32;;;;;;;9.47;5.30;;;;;;;;;;5032769;28;20451;-77
2022/01/06 08:30:59;;;;;;;6.27;4.57;;;;;;;;;;5045638;28;20507;-78
2022/01/06 08:33:26;;;;;;;10.37;5.53;;;;;;;;;;5038647;28;20644;-78
2022/01/06 08:35:53;;;;;;;9.90;5.43;;;;;;;;;;5032233;28;20464;-78
2022/01/06 08:38:22;;;;;;;8.20;5.50;;;;;;;;;;5032138;28;20822;-78
2022/01/06 08:40:49;;;;;;;42.33;31.40;;;;;;;;;;5049228;28;20490;-78
2022/01/06 08:43:16;;;;;;;27.80;17.90;;;;;;;;;;5031648;28;20457;-77
2022/01/06 08:45:43;;;;;;;9.73;6.80;;;;;;;;;;5032036;28;20443;-77
2022/01/06 08:48:10;;;;;;;10.93;5.73;;;;;;;;;;5032211;28;20504;-79
2022/01/06 08:50:37;;;;;;;7.30;5.10;;;;;;;;;;5031957;28;20946;-77
2022/01/06 08:53:04;;;;;;;5.73;4.77;;;;;;;;;;5038278;28;20450;-77
2022/01/06 08:55:35;;;;;;;5.60;5.10;;;;;;;;;;5051147;28;20447;-78
2022/01/06 08:58:02;;;;;;;8.00;5.00;;;;;;;;;;5047084;28;20474;-77
2022/01/06 09:00:30;;;;;;;9.13;5.13;;;;;;;;;;5037061;28;20458;-78
2022/01/06 09:02:57;;;;;;;6.27;4.70;;;;;;;;;;5039576;28;20473;-78
2022/01/06 09:05:24;;;;;;;9.33;4.90;;;;;;;;;;5050585;28;20449;-78
2022/01/06 09:07:51;;;;;;;9.80;4.47;;;;;;;;;;5050572;28;20473;-77
2022/01/06 09:10:19;;;;;;;8.73;5.57;;;;;;;;;;5052328;28;20884;-78
2022/01/06 09:12:47;;;;;;;10.03;4.87;;;;;;;;;;5042360;28;20533;-77
2022/01/06 09:15:14;;;;;;;7.00;6.27;;;;;;;;;;5032299;28;20481;-78
2022/01/06 09:17:41;;;;;;;7.13;4.53;;;;;;;;;;5032173;28;20463;-78
2022/01/06 09:20:09;;;;;;;9.93;5.43;;;;;;;;;;5033052;28;20450;-78
2022/01/06 09:22:36;;;;;;;9.13;5.30;;;;;;;;;;5031255;28;20556;-76
2022/01/06 09:25:04;;;;;;;7.10;4.90;;;;;;;;;;5032493;28;20864;-76
2022/01/06 09:27:31;;;;;;;7.50;4.67;;;;;;;;;;5032456;28;20466;-78
2022/01/06 09:29:59;;;;;;;8.03;4.53;;;;;;;;;;5031984;28;20439;-77
2022/01/06 09:32:26;;;;;;;5.40;4.50;;;;;;;;;;5032510;28;20439;-78
2022/01/06 09:34:54;;;;;;;8.13;4.90;;;;;;;;;;5032541;28;20942;-78
2022/01/06 09:37:21;;;;;;;8.10;5.07;;;;;;;;;;5033748;28;20463;-78
2022/01/06 09:39:48;;;;;;;10.30;5.63;;;;;;;;;;5045828;28;20549;-77
2022/01/06 09:42:15;;;;;;;5.30;4.80;;;;;;;;;;5051524;28;20482;-80
2022/01/06 09:44:43;;;;;;;6.70;4.70;;;;;;;;;;5053385;28;20937;-79
2022/01/06 09:47:11;;;;;;;8.90;5.20;;;;;;;;;;5052717;28;20481;-79
2022/01/06 09:49:40;;;;;;;9.70;4.70;;;;;;;;;;5056352;28;20454;-78
2022/01/06 09:52:07;;;;;;;8.70;6.23;;;;;;;;;;5055350;28;20521;-78
2022/01/06 09:54:35;;;;;;;6.20;4.87;;;;;;;;;;5054298;28;20444;-77
2022/01/06 09:57:02;;;;;;;6.97;4.53;;;;;;;;;;5048374;28;20519;-78
2022/01/06 09:59:29;;;;;;;7.03;4.00;;;;;;;;;;5050964;28;20469;-78
2022/01/06 10:01:58;;;;;;;5.07;4.57;;;;;;;;;;5044521;28;20508;-78
2022/01/06 10:04:28;;;;;;;8.60;4.90;;;;;;;;;;5055144;28;20447;-77
2022/01/06 10:07:02;;;;;;;7.07;5.13;;;;;;;;;;5051700;28;20470;-77
2022/01/06 10:09:31;;;;;;;7.13;4.73;;;;;;;;;;5035637;28;20900;-78
2022/01/06 10:11:59;;;;;;;6.83;4.87;;;;;;;;;;5035476;28;20973;-77
2022/01/06 10:14:40;;;;;;;7.60;5.30;;;;;;;;;;5034849;28;20435;-76
2022/01/06 10:17:07;;;;;;;7.60;5.67;;;;;;;;;;5044070;28;20534;-77
2022/01/06 10:19:37;;;;;;;7.63;5.47;;;;;;;;;;5050805;28;20452;-79
2022/01/06 10:22:04;;;;;;;10.23;5.13;;;;;;;;;;5050671;28;20482;-77
2022/01/06 10:24:31;;;;;;;8.10;4.33;;;;;;;;;;5053713;28;20207;-77
2022/01/06 10:27:00;;;;;;;6.80;4.33;;;;;;;;;;5055092;28;20466;-77
2022/01/06 10:29:29;;;;;;;6.57;5.37;;;;;;;;;;5047638;28;20443;-77
2022/01/06 10:32:02;;;;;;;7.00;4.90;;;;;;;;;;5035170;28;20435;-76
2022/01/06 10:34:30;;;;;;;9.30;5.20;;;;;;;;;;5036593;28;20431;-77
2022/01/06 10:36:58;;;;;;;6.00;4.50;;;;;;;;;;5034510;28;20495;-78
2022/01/06 10:39:25;;;;;;;9.30;4.57;;;;;;;;;;5036271;28;20454;-77
2022/01/06 10:41:53;;;;;;;9.97;4.40;;;;;;;;;;5042187;28;20490;-78
2022/01/06 10:44:20;;;;;;;6.90;4.47;;;;;;;;;;5044051;28;20446;-77
2022/01/06 10:46:47;;;;;;;7.63;4.70;;;;;;;;;;5051339;28;20544;-77
2022/01/06 10:49:15;;;;;;;5.47;4.17;;;;;;;;;;5039861;28;20447;-78
2022/01/06 10:51:43;;;;;;;5.03;4.63;;;;;;;;;;5041936;28;20492;-77
2022/01/06 10:54:20;;;;;;;7.67;4.53;;;;;;;;;;5052945;28;20454;-78
2022/01/06 10:57:02;;;;;;;7.90;4.47;;;;;;;;;;5052792;28;21041;-77
2022/01/06 10:59:31;;;;;;;4.90;4.03;;;;;;;;;;5050634;28;20957;-77
2022/01/06 11:01:58;;;;;;;4.53;3.47;;;;;;;;;;5052405;28;20476;-76
2022/01/06 11:04:25;;;;;;;8.93;4.37;;;;;;;;;;5052537;28;20500;-77
2022/01/06 11:06:52;;;;;;;4.50;3.90;;;;;;;;;;5052610;28;20481;-77
2022/01/06 11:09:21;;;;;;;5.63;3.60;;;;;;;;;;5052665;28;20983;-77
2022/01/06 11:14:34;;;;;;;4.07;3.70;;;;;;;;;;5052261;28;20453;-77
2022/01/06 11:17:01;;;;;;;7.60;4.27;;;;;;;;;;5052365;28;20539;-77
2022/01/06 11:19:29;;;;;;;6.77;3.70;;;;;;;;;;5052944;28;20448;-77
2022/01/06 11:22:00;;;;;;;7.10;4.23;;;;;;;;;;5052961;28;20509;-76
2022/01/06 11:24:29;;;;;;;7.23;3.80;;;;;;;;;;5055081;28;20929;-78
2022/01/06 11:27:01;;;;;;;9.00;3.90;;;;;;;;;;5056752;28;20462;-77
2022/01/06 11:29:29;;;;;;;13.10;8.13;;;;;;;;;;5054580;28;20452;-78
2022/01/06 11:31:58;;;;;;;6.53;3.50;;;;;;;;;;5052922;28;20450;-77
2022/01/06 11:34:25;;;;;;;6.40;4.03;;;;;;;;;;5052371;28;20510;-78
2022/01/06 11:36:54;;;;;;;4.60;3.70;;;;;;;;;;5053177;28;20522;-78
2022/01/06 11:39:23;;;;;;;6.50;3.40;;;;;;;;;;5052859;28;20529;-77
2022/01/06 11:41:52;;;;;;;5.37;4.00;;;;;;;;;;5053232;28;20501;-77
2022/01/06 11:44:20;;;;;;;7.60;4.70;;;;;;;;;;5053033;28;20454;-77
2022/01/06 11:46:49;;;;;;;5.53;4.17;;;;;;;;;;5039007;28;20552;-78
2022/01/06 11:49:17;;;;;;;5.43;3.60;;;;;;;;;;5049504;28;20446;-78
2022/01/06 11:51:44;;;;;;;5.00;3.53;;;;;;;;;;5043495;28;20445;-78
2022/01/06 11:54:16;;;;;;;5.17;3.30;;;;;;;;;;5032679;28;20436;-79
2022/01/06 11:56:47;;;;;;;5.50;3.13;;;;;;;;;;5033065;28;20471;-79
2022/01/06 11:59:18;;;;;;;9.07;3.57;;;;;;;;;;5031586;28;20454;-78
2022/01/06 12:01:45;;;;;;;5.97;3.47;;;;;;;;;;5041506;28;20430;-78
2022/01/06 12:04:15;;;;;;;6.57;3.13;;;;;;;;;;5056464;28;20450;-79
2022/01/06 12:06:43;;;;;;;8.53;3.80;;;;;;;;;;5058503;28;20456;-80
2022/01/06 12:09:15;;;;;;;13.70;3.80;;;;;;;;;;5056006;28;20599;-79
2022/01/06 12:11:44;;;;;;;5.17;3.60;;;;;;;;;;5053194;28;20486;-79
2022/01/06 12:14:11;;;;;;;5.80;3.63;;;;;;;;;;5052112;28;20602;-78
2022/01/06 12:16:41;;;;;;;5.27;4.30;;;;;;;;;;5053098;28;20490;-80
2022/01/06 12:19:14;;;;;;;8.00;4.80;;;;;;;;;;5051980;28;20450;-78
2022/01/06 12:21:41;;;;;;;5.77;4.30;;;;;;;;;;5051773;28;20449;-78
2022/01/06 12:24:09;;;;;;;6.40;3.33;;;;;;;;;;5051365;28;20455;-77
2022/01/06 12:26:37;;;;;;;9.30;4.20;;;;;;;;;;5051584;28;20462;-78
2022/01/06 12:29:06;;;;;;;5.77;4.10;;;;;;;;;;5051465;28;20536;-77
2022/01/06 12:31:34;;;;;;;9.77;4.67;;;;;;;;;;5051674;28;20424;-77
2022/01/06 12:34:03;;;;;;;6.00;4.00;;;;;;;;;;5051684;28;20428;-77
2022/01/06 12:36:31;;;;;;;7.30;3.90;;;;;;;;;;5051448;28;20473;-77
2022/01/06 12:38:58;;;;;;;9.80;3.90;;;;;;;;;;5048539;28;20451;-77
2022/01/06 12:41:27;;;;;;;8.17;4.20;;;;;;;;;;5035733;28;20439;-77
2022/01/06 12:43:55;;;;;;;7.07;3.57;;;;;;;;;;5032121;28;20479;-78
2022/01/06 12:46:23;;;;;;;8.37;4.17;;;;;;;;;;5031782;28;20479;-79
2022/01/06 12:48:51;;;;;;;6.33;3.73;;;;;;;;;;5032968;28;20470;-78
2022/01/06 12:51:20;;;;;;;7.20;4.07;;;;;;;;;;5031931;28;20451;-78
2022/01/06 12:53:48;;;;;;;7.10;5.10;;;;;;;;;;5033306;28;20440;-78
2022/01/06 12:56:25;;;;;;;10.37;4.90;;;;;;;;;;5032425;28;20459;-79
2022/01/06 12:58:54;;;;;;;7.33;3.63;;;;;;;;;;5032088;28;20445;-76
2022/01/06 13:01:21;;;;;;;6.50;3.87;;;;;;;;;;5032074;28;20520;-78
2022/01/06 13:03:53;;;;;;;5.70;3.67;;;;;;;;;;5046433;28;20539;-77
2022/01/06 13:06:22;;;;;;;8.70;3.53;;;;;;;;;;5051501;28;20503;-78
2022/01/06 13:08:50;;;;;;;6.60;4.13;;;;;;;;;;5051557;28;20449;-77
2022/01/06 13:11:18;;;;;;;5.87;3.50;;;;;;;;;;5051875;28;20962;-79
2022/01/06 13:13:46;;;;;;;4.00;3.00;;;;;;;;;;5051148;28;20496;-77
2022/01/06 13:16:15;;;;;;;7.13;4.07;;;;;;;;;;5052537;28;20964;-78
2022/01/06 13:18:51;;;;;;;6.40;3.40;;;;;;;;;;5056116;28;20473;-78
2022/01/06 13:21:27;;;;;;;9.20;3.00;;;;;;;;;;5068199;28;20437;-78
2022/01/06 13:23:54;;;;;;;6.90;4.20;;;;;;;;;;5058752;28;20520;-77
2022/01/06 13:26:21;;;;;;;8.43;4.67;;;;;;;;;;5055367;28;20487;-79
2022/01/06 13:28:56;;;;;;;5.43;3.00;;;;;;;;;;5055223;28;20445;-77
2022/01/06 13:31:24;;;;;;;4.83;3.10;;;;;;;;;;5054901;28;20527;-78
2022/01/06 13:33:55;;;;;;;3.63;2.80;;;;;;;;;;5055457;28;20459;-78
2022/01/06 13:36:32;;;;;;;8.37;2.90;;;;;;;;;;5055103;28;20588;-76
2022/01/06 13:39:06;;;;;;;5.60;4.07;;;;;;;;;;5055031;28;20529;-78
2022/01/06 13:41:34;;;;;;;11.37;4.13;;;;;;;;;;5055742;28;20453;-77
2022/01/06 13:44:05;;;;;;;5.13;2.90;;;;;;;;;;5055455;28;20848;-77
2022/01/06 13:46:41;;;;;;;5.40;3.43;;;;;;;;;;5055874;28;20478;-79
2022/01/06 13:51:54;;;;;;;5.20;3.50;;;;;;;;;;5055575;28;20449;-77
2022/01/06 13:54:21;;;;;;;7.00;3.60;;;;;;;;;;5055093;28;20447;-80
2022/01/06 13:56:48;;;;;;;5.67;3.50;;;;;;;;;;5058615;28;20879;-77
2022/01/06 13:59:16;;;;;;;6.67;3.70;;;;;;;;;;5055949;28;20445;-77
2022/01/06 14:01:44;;;;;;;3.97;3.50;;;;;;;;;;5056034;28;20442;-77
2022/01/06 14:04:17;;;;;;;6.77;3.40;;;;;;;;;;5039036;28;20528;-79
2022/01/06 14:06:44;;;;;;;5.70;3.20;;;;;;;;;;5037569;28;20447;-79
2022/01/06 14:09:12;;;;;;;10.00;4.33;;;;;;;;;;5036194;28;20447;-77
2022/01/06 14:11:40;;;;;;;7.70;3.60;;;;;;;;;;5035949;28;20496;-79
2022/01/06 14:14:07;;;;;;;8.70;3.53;;;;;;;;;;5034656;28;20443;-77
2022/01/06 14:16:34;;;;;;;7.93;3.57;;;;;;;;;;5034885;28;20508;-79
2022/01/06 14:19:01;;;;;;;8.53;3.13;;;;;;;;;;5036186;28;20969;-78
2022/01/06 14:21:28;;;;;;;7.40;3.37;;;;;;;;;;5034216;28;20446;-77
2022/01/06 14:23:56;;;;;;;7.40;2.67;;;;;;;;;;5034959;28;20490;-77
2022/01/06 14:26:24;;;;;;;5.07;3.03;;;;;;;;;;5036137;28;20471;-77
2022/01/06 14:28:51;;;;;;;8.00;3.50;;;;;;;;;;5035073;28;20740;-77
2022/01/06 14:31:18;;;;;;;6.03;3.70;;;;;;;;;;5034105;28;20857;-77
2022/01/06 14:33:45;;;;;;;5.33;2.90;;;;;;;;;;5034678;28;20449;-77
2022/01/06 14:36:13;;;;;;;8.77;3.40;;;;;;;;;;5036175;28;20558;-77
2022/01/06 14:38:41;;;;;;;6.30;3.30;;;;;;;;;;5035957;28;20427;-78
2022/01/06 14:41:09;;;;;;;4.67;3.30;;;;;;;;;;5035312;28;20443;-77
2022/01/06 14:43:37;;;;;;;8.67;4.33;;;;;;;;;;5035042;28;20478;-79
2022/01/06 14:46:04;;;;;;;7.20;3.43;;;;;;;;;;5033895;28;20470;-77
2022/01/06 14:48:32;;;;;;;8.00;3.70;;;;;;;;;;5033869;28;20450;-78
2022/01/06 14:50:59;;;;;;;7.87;3.37;;;;;;;;;;5036140;28;20444;-77
2022/01/06 14:53:26;;;;;;;4.67;3.57;;;;;;;;;;5037900;28;20824;-77
2022/01/06 14:55:53;;;;;;;10.90;3.43;;;;;;;;;;5035221;28;20498;-78